Página principal
Imagens de satélite Previsões 10 diasClimaMeteorologia maritima Ciclones Descargas eléctricas AeroportosFAQ Notícias Sobre
Tempo : Europa África América do Norte América do Sul Ásia Austrália-Oceania Outros
Línguas Contacto

Belo Horizonte, Minas Gerais, Brasil

Aeroporto Internacional de Belo Horizonte-Confins

latitude: 19-56S, longitude: 043-56W, altura: 850 m


METAR: SBCF 021600Z 24004KT 9999 FEW040 29/13 Q1020
TAF: SBCF 021100Z 0212/0312 10008KT CAVOK TX29/0218Z TN15/0309Z BECMG 0218/0220 09004KT RMK PEF

Hora: 13:52 (16:52 UTC)

Observação actual do tempo

O boletim foi feito há 52 minutos, às 16:00 UTC
Vento 4 kt de oes-sudoeste
Temperatura 29°C
Humidade 37%
Pressão 1020 hPa
Visibilidade 10 km ou mais
Poucas nuvensa uma altura de 4000 ft

Mudar unidades

Previsão

O boletim foi feito há 5 horas e 52 minutos, às 11:00 UTC
Previsão válida de 02 às 12 UTC a 03 às 12 UTC
Vento 8 kt de este
Visibilidade 10 km ou mais
sem nuvens abaixo de 1500 metros e sem cumulonimbus
Tornando-se
de 02 às 18 UTC a 02 às 20 UTC
Vento 4 kt de este
As informações contidas neste sítio estão sujeitas a uma declaração de exoneração de responsabilidade
Tempo : Europa África América do Norte América do Sul Ásia Austrália-Oceania Outros
Imagens de satélite Previsões 10 diasClimaMeteorologia maritima Ciclones Descargas eléctricas AeroportosFAQ Línguas Contacto Notícias Sobre